Neptune Avra — 9HKH6 — position and weather

sailwx.info

Track history (hours):
 
Tides and Currents Weather Stations Pressure Air Temp Water Temp Dewpoint Dewpoint Depression Visibility Wind Speed Wind Dir Waves Ship Positions

Neptune Avra

Last reported at 2015-Aug-03 06:21 UTC. Time now 2015-Aug-03 10:43 UTC.
Position N 41°17' E 002°11'.

Length 155 m; draft 6.5 m.

Type: Cargo ship. MMSI: 248598000.

Date/timePositionNaut miles runAvg speedWind from/ knotsBaromVisibWave heightAir tempDewpointWater temp
2015-Aug-03 06:21N 41°17' E 002°11'1316.7
2015-Aug-03 05:33N 41°05' E 002°03'1716.9
2015-Aug-03 04:33N 40°50' E 001°53'1717.2
2015-Aug-03 03:33N 40°34' E 001°43'1717.4
2015-Aug-03 02:33N 40°19' E 001°32'1817.6
2015-Aug-03 01:33N 40°03' E 001°22'12917.3
2015-Aug-02 18:06N 38°10' E 000°02'917.0
2015-Aug-02 17:33N 38°03' W 000°05'1716.9
2015-Aug-02 16:33N 37°49' W 000°17'1716.6
2015-Aug-02 15:33N 37°35' W 000°29'1615.6
2015-Aug-02 14:34N 37°25' W 000°43'  
2015-Jul-29 10:15N 36°24' W 002°28'3616.3
2015-Jul-29 08:04N 36°41' W 001°49'1117.0
2015-Jul-29 07:26N 36°48' W 001°39'1416.4
2015-Jul-29 06:33N 36°58' W 001°26'1716.7
2015-Jul-29 05:33N 37°09' W 001°10'1716.8
2015-Jul-29 04:33N 37°20' W 000°54'1716.9
2015-Jul-29 03:33N 37°32' W 000°39'1616.2
2015-Jul-29 02:33N 37°44' W 000°25'1716.6
2015-Jul-29 01:33N 37°58' W 000°14'1716.5
2015-Jul-29 00:32N 38°12' W 000°02'1616.6
2015-Jul-28 23:33N 38°26' E 000°09'1916.7
2015-Jul-28 22:26N 38°42' E 000°22'1516.0
2015-Jul-28 21:31N 38°54' E 000°32'2812.6
2015-Jul-28 19:15N 39°17' E 000°53'105 8.2
2015-Jul-28 06:33N 40°42' E 002°14'14816.4
2015-Jul-27 21:31N 42°56' E 003°39'28 6.9
2015-Jul-27 17:25N 43°24' E 003°43'0 0.0
2015-Jul-27 05:33N 43°24' E 003°43'2 0.5
2015-Jul-27 01:29N 43°22' E 003°45'0 0.0
2015-Jul-27 00:32N 43°22' E 003°45'0 0.0
2015-Jul-26 23:32N 43°22' E 003°45'0 0.0
2015-Jul-26 22:29N 43°22' E 003°45'0 0.0
2015-Jul-26 21:32N 43°22' E 003°45'0 0.0
2015-Jul-26 20:32N 43°22' E 003°45'0 0.0
2015-Jul-26 19:32N 43°22' E 003°45'0 0.0
2015-Jul-26 18:32N 43°23' E 003°45'0 0.0
2015-Jul-26 17:32N 43°23' E 003°45'0 0.0
2015-Jul-26 16:32N 43°23' E 003°45'0 0.0
2015-Jul-26 15:16N 43°23' E 003°45'0 0.0
2015-Jul-26 14:31N 43°23' E 003°45'0 0.0
2015-Jul-26 13:31N 43°23' E 003°45'0 0.0
2015-Jul-26 12:31N 43°22' E 003°45'0 0.0
2015-Jul-26 11:31N 43°22' E 003°45'0 0.0
2015-Jul-26 10:31N 43°22' E 003°45'0 0.0
2015-Jul-26 09:28N 43°22' E 003°45'0 0.0
2015-Jul-26 08:19N 43°22' E 003°45'0 0.0
2015-Jul-26 07:31N 43°22' E 003°45'0 0.0
2015-Jul-26 06:31N 43°22' E 003°45'0 0.0
2015-Jul-26 05:31N 43°22' E 003°45'0 0.0
2015-Jul-26 04:28N 43°22' E 003°45'0 0.0
2015-Jul-26 03:31N 43°22' E 003°45'0 0.0
2015-Jul-26 02:31N 43°22' E 003°45'0 0.0
2015-Jul-26 01:31N 43°22' E 003°45'0 0.0
2015-Jul-26 00:31N 43°22' E 003°45'0 0.0
2015-Jul-25 23:22N 43°22' E 003°45'0 0.0
2015-Jul-25 22:31N 43°22' E 003°45'5 5.2
2015-Jul-25 21:33N 43°17' E 003°45'1515.4
2015-Jul-25 20:33N 43°02' E 003°44'12114.6
2015-Jul-25 12:18N 41°19' E 002°18'6 8.5
2015-Jul-25 11:33N 41°21' E 002°10'12 1.4
2015-Jul-25 02:33N 41°09' E 002°03'1616.0
2015-Jul-25 01:33N 40°57' E 001°49'1615.9
2015-Jul-25 00:33N 40°45' E 001°36'1616.1
2015-Jul-24 23:33N 40°33' E 001°21'1616.1
2015-Jul-24 22:33N 40°24' E 001°04'1616.3
2015-Jul-24 21:32N 40°13' E 000°48'1616.3
2015-Jul-24 20:33N 40°03' E 000°31'1616.3
2015-Jul-24 19:33N 39°52' E 000°15'1616.2
2015-Jul-24 18:33N 39°42' W 000°01'10 1.6
2015-Jul-24 12:28N 39°39' W 000°13'3 1.1
2015-Jul-24 09:19N 39°36' W 000°10'18 8.1
2015-Jul-24 07:07N 39°21' E 000°00'1216.1
2015-Jul-24 06:23N 39°10' E 000°08'  
Track history (hours):
 
Tides and Currents Weather Stations Pressure Air Temp Water Temp Dewpoint Dewpoint Depression Visibility Wind Speed Wind Dir Waves Ship Positions

Neptune Avra

Last reported at 2015-Aug-03 06:21 UTC. Time now 2015-Aug-03 10:43 UTC.
Position N 41°17' E 002°11'.

Length 155 m; draft 6.5 m.

Type: Cargo ship. MMSI: 248598000.

Date/timePositionNaut miles runAvg speedWind from/ knotsBaromVisibWave heightAir tempDewpointWater temp
2015-Aug-03 06:21N 41°17' E 002°11'1316.7
2015-Aug-03 05:33N 41°05' E 002°03'1716.9
2015-Aug-03 04:33N 40°50' E 001°53'1717.2
2015-Aug-03 03:33N 40°34' E 001°43'1717.4
2015-Aug-03 02:33N 40°19' E 001°32'1817.6
2015-Aug-03 01:33N 40°03' E 001°22'12917.3
2015-Aug-02 18:06N 38°10' E 000°02'917.0
2015-Aug-02 17:33N 38°03' W 000°05'1716.9
2015-Aug-02 16:33N 37°49' W 000°17'1716.6
2015-Aug-02 15:33N 37°35' W 000°29'1615.6
2015-Aug-02 14:34N 37°25' W 000°43'  
2015-Jul-29 10:15N 36°24' W 002°28'3616.3
2015-Jul-29 08:04N 36°41' W 001°49'1117.0
2015-Jul-29 07:26N 36°48' W 001°39'1416.4
2015-Jul-29 06:33N 36°58' W 001°26'1716.7
2015-Jul-29 05:33N 37°09' W 001°10'1716.8
2015-Jul-29 04:33N 37°20' W 000°54'1716.9
2015-Jul-29 03:33N 37°32' W 000°39'1616.2
2015-Jul-29 02:33N 37°44' W 000°25'1716.6
2015-Jul-29 01:33N 37°58' W 000°14'1716.5
2015-Jul-29 00:32N 38°12' W 000°02'1616.6
2015-Jul-28 23:33N 38°26' E 000°09'1916.7
2015-Jul-28 22:26N 38°42' E 000°22'1516.0
2015-Jul-28 21:31N 38°54' E 000°32'2812.6
2015-Jul-28 19:15N 39°17' E 000°53'105 8.2
2015-Jul-28 06:33N 40°42' E 002°14'14816.4
2015-Jul-27 21:31N 42°56' E 003°39'28 6.9
2015-Jul-27 17:25N 43°24' E 003°43'0 0.0
2015-Jul-27 05:33N 43°24' E 003°43'2 0.5
2015-Jul-27 01:29N 43°22' E 003°45'0 0.0
2015-Jul-27 00:32N 43°22' E 003°45'0 0.0
2015-Jul-26 23:32N 43°22' E 003°45'0 0.0
2015-Jul-26 22:29N 43°22' E 003°45'0 0.0
2015-Jul-26 21:32N 43°22' E 003°45'0 0.0
2015-Jul-26 20:32N 43°22' E 003°45'0 0.0
2015-Jul-26 19:32N 43°22' E 003°45'0 0.0
2015-Jul-26 18:32N 43°23' E 003°45'0 0.0
2015-Jul-26 17:32N 43°23' E 003°45'0 0.0
2015-Jul-26 16:32N 43°23' E 003°45'0 0.0
2015-Jul-26 15:16N 43°23' E 003°45'0 0.0
2015-Jul-26 14:31N 43°23' E 003°45'0 0.0
2015-Jul-26 13:31N 43°23' E 003°45'0 0.0
2015-Jul-26 12:31N 43°22' E 003°45'0 0.0
2015-Jul-26 11:31N 43°22' E 003°45'0 0.0
2015-Jul-26 10:31N 43°22' E 003°45'0 0.0
2015-Jul-26 09:28N 43°22' E 003°45'0 0.0
2015-Jul-26 08:19N 43°22' E 003°45'0 0.0
2015-Jul-26 07:31N 43°22' E 003°45'0 0.0
2015-Jul-26 06:31N 43°22' E 003°45'0 0.0
2015-Jul-26 05:31N 43°22' E 003°45'0 0.0
2015-Jul-26 04:28N 43°22' E 003°45'0 0.0
2015-Jul-26 03:31N 43°22' E 003°45'0 0.0
2015-Jul-26 02:31N 43°22' E 003°45'0 0.0
2015-Jul-26 01:31N 43°22' E 003°45'0 0.0
2015-Jul-26 00:31N 43°22' E 003°45'0 0.0
2015-Jul-25 23:22N 43°22' E 003°45'0 0.0
2015-Jul-25 22:31N 43°22' E 003°45'5 5.2
2015-Jul-25 21:33N 43°17' E 003°45'1515.4
2015-Jul-25 20:33N 43°02' E 003°44'12114.6
2015-Jul-25 12:18N 41°19' E 002°18'6 8.5
2015-Jul-25 11:33N 41°21' E 002°10'12 1.4
2015-Jul-25 02:33N 41°09' E 002°03'1616.0
2015-Jul-25 01:33N 40°57' E 001°49'1615.9
2015-Jul-25 00:33N 40°45' E 001°36'1616.1
2015-Jul-24 23:33N 40°33' E 001°21'1616.1
2015-Jul-24 22:33N 40°24' E 001°04'1616.3
2015-Jul-24 21:32N 40°13' E 000°48'1616.3
2015-Jul-24 20:33N 40°03' E 000°31'1616.3
2015-Jul-24 19:33N 39°52' E 000°15'1616.2
2015-Jul-24 18:33N 39°42' W 000°01'10 1.6
2015-Jul-24 12:28N 39°39' W 000°13'3 1.1
2015-Jul-24 09:19N 39°36' W 000°10'18 8.1
2015-Jul-24 07:07N 39°21' E 000°00'1216.1
2015-Jul-24 06:23N 39°10' E 000°08'  

Dump ship's entire track history